Terminal Aerodrome Forecast
Issued by NWS

Current Version | Previous Version | Text Only | Print | Product List | Glossary On
Versions: 1 2 3 4 5 6 7 8 9 10 11 12 13 14 15 16 17 18 19 20 21 22 23 24
000
FTUS41 KPBZ 051729
TAFZZV
TAF
KZZV 051729Z 0518/0618 VRB04KT P6SM BKN250
     FM060600 00000KT 4SM BR BKN150
      TEMPO 0608/0612 2SM BR
     FM061200 11004KT 6SM BR VCSH BKN050=

USA.gov is the U.S. government's official web portal to all federal, state and local government web resources and services.